Time;durP1;ratioP1;P1;durP2;ratioP2;P2;SDS_P1;SDS_P2;PMS_P1;PMS_P2;Temp;Humidity;BMP_temperature;BMP_pressure;BME280_temperature;BME280_humidity;BME280_pressure;Samples;Min_cycle;Max_cycle;Signal;HPM_P1;HPM_P2
2021/12/25 00:02:17;;;;;;;10.03;7.10;;;12.60;58.30;;;;;;5248110;28;20053;-31
2021/12/25 00:04:49;;;;;;;10.43;6.60;;;12.60;58.40;;;;;;5248362;28;20478;-30
2021/12/25 00:07:21;;;;;;;16.17;7.35;;;12.60;58.20;;;;;;5247744;28;20055;-29
2021/12/25 00:09:52;;;;;;;13.87;6.23;;;12.60;58.00;;;;;;5248291;28;20048;-30
2021/12/25 00:12:24;;;;;;;15.07;6.57;;;12.60;58.10;;;;;;5248280;28;20067;-31
2021/12/25 00:14:55;;;;;;;19.77;7.97;;;12.60;58.00;;;;;;5249024;28;20413;-31
2021/12/25 00:17:27;;;;;;;20.90;8.77;;;12.60;58.00;;;;;;5249731;28;20405;-29
2021/12/25 00:19:58;;;;;;;11.43;5.47;;;12.60;57.90;;;;;;5231781;28;20041;-31
2021/12/25 00:22:29;;;;;;;5.73;3.20;;;12.60;57.90;;;;;;5247853;28;20040;-31
2021/12/25 00:25:00;;;;;;;5.67;3.43;;;12.50;57.90;;;;;;5249398;28;20037;-28
2021/12/25 00:27:50;;;;;;;8.33;4.57;;;12.50;58.60;;;;;;5249182;28;20115;-31
2021/12/25 00:30:32;;;;;;;7.17;5.13;;;12.50;59.10;;;;;;5203838;28;20131;-29
2021/12/25 00:33:19;;;;;;;11.23;5.57;;;12.60;58.60;;;;;;5248357;28;20119;-29
2021/12/25 00:35:50;;;;;;;5.30;3.73;;;12.50;58.40;;;;;;5248638;28;20052;-32
2021/12/25 00:38:21;;;;;;;7.33;4.63;;;12.60;58.20;;;;;;5248680;28;20063;-31
2021/12/25 00:40:53;;;;;;;13.03;8.20;;;12.60;58.10;;;;;;5249208;28;20106;-29
2021/12/25 00:43:24;;;;;;;5.47;2.80;;;12.60;57.80;;;;;;5248954;28;20596;-30
2021/12/25 00:45:55;;;;;;;5.90;3.10;;;12.50;57.70;;;;;;5247695;28;20063;-30
2021/12/25 00:48:27;;;;;;;7.73;3.50;;;12.50;57.60;;;;;;5247806;28;20567;-31
2021/12/25 00:50:59;;;;;;;6.20;2.67;;;12.50;57.30;;;;;;5214685;28;20051;-31
2021/12/25 00:53:30;;;;;;;22.17;9.10;;;12.60;57.50;;;;;;5246218;28;20071;-32
2021/12/25 00:56:01;;;;;;;17.73;7.07;;;12.60;57.50;;;;;;5247325;28;20494;-29
2021/12/25 00:58:32;;;;;;;75.70;28.80;;;12.60;57.50;;;;;;5248383;28;20044;-31
2021/12/25 01:01:03;;;;;;;50.17;20.00;;;12.60;57.30;;;;;;5265404;28;20063;-31
2021/12/25 01:03:34;;;;;;;37.07;16.83;;;12.60;57.50;;;;;;5251512;28;20048;-28
2021/12/25 01:06:05;;;;;;;56.00;29.53;;;12.70;57.70;;;;;;5251547;28;20088;-28
2021/12/25 01:08:37;;;;;;;47.50;28.30;;;12.70;57.50;;;;;;5250567;28;20481;-29
2021/12/25 01:11:08;;;;;;;47.77;28.27;;;12.70;57.50;;;;;;5268495;28;20044;-30
2021/12/25 01:13:47;;;;;;;39.50;25.70;;;12.70;57.60;;;;;;5234870;28;20048;-31
2021/12/25 01:30:18;;;;;;;24.17;15.77;;;12.70;57.40;;;;;;5163017;28;20062;-29
2021/12/25 01:39:11;;;;;;;15.90;10.37;;;12.70;57.60;;;;;;5143977;28;20050;-31
2021/12/25 01:50:10;;;;;;;194.07;130.73;;;12.70;57.20;;;;;;5144007;28;20055;-31
2021/12/25 01:52:41;;;;;;;38.50;22.00;;;12.70;57.30;;;;;;5143912;28;20524;-31
2021/12/25 01:55:15;;;;;;;65.97;29.60;;;12.70;57.20;;;;;;5127716;28;20126;-29
2021/12/25 01:57:46;;;;;;;31.90;15.27;;;12.70;57.70;;;;;;5127626;28;20133;-29
2021/12/25 02:00:35;;;;;;;25.23;12.83;;;12.70;56.90;;;;;;5143227;28;20532;-29
2021/12/25 02:03:07;;;;;;;70.93;32.17;;;12.70;56.80;;;;;;5143852;28;20133;-29
2021/12/25 02:05:38;;;;;;;38.38;18.70;;;12.60;57.00;;;;;;5132917;28;20618;-29
2021/12/25 02:08:10;;;;;;;62.43;27.30;;;12.60;56.80;;;;;;5225086;28;20045;-29
2021/12/25 02:10:40;;;;;;;40.03;19.37;;;12.70;56.90;;;;;;5209196;28;20472;-31
2021/12/25 02:13:12;;;;;;;31.83;16.43;;;12.60;56.70;;;;;;5256077;28;20056;-31
2021/12/25 02:15:47;;;;;;;40.20;24.57;;;12.60;56.60;;;;;;5273008;28;20359;-30
2021/12/25 02:18:26;;;;;;;24.00;13.70;;;12.70;56.70;;;;;;5255512;28;20040;-30
2021/12/25 02:23:30;;;;;;;22.97;14.03;;;12.60;56.60;;;;;;5254511;28;20055;-31
2021/12/25 02:26:01;;;;;;;36.70;18.90;;;12.60;56.50;;;;;;5254566;28;20040;-29
2021/12/25 02:28:32;;;;;;;32.00;18.23;;;12.60;56.50;;;;;;5272331;28;20050;-28
2021/12/25 02:31:06;;;;;;;24.30;14.30;;;12.60;56.30;;;;;;5254525;28;20489;-29
2021/12/25 02:33:38;;;;;;;28.33;17.07;;;12.60;56.30;;;;;;5254372;28;20051;-29
2021/12/25 02:36:12;;;;;;;36.07;19.37;;;12.60;56.30;;;;;;5237150;28;20056;-29
2021/12/25 02:38:44;;;;;;;24.73;15.10;;;12.60;56.20;;;;;;5237718;28;20473;-29
2021/12/25 02:41:15;;;;;;;35.70;21.70;;;12.60;56.30;;;;;;5254059;28;20044;-31
2021/12/25 02:43:46;;;;;;;16.07;9.60;;;12.60;56.20;;;;;;5237720;28;20085;-31
2021/12/25 02:46:17;;;;;;;19.20;11.70;;;12.60;56.20;;;;;;5271970;28;20039;-28
2021/12/25 02:48:48;;;;;;;13.63;9.00;;;12.60;56.10;;;;;;5272035;28;20047;-30
2021/12/25 02:51:19;;;;;;;16.40;10.93;;;12.60;56.10;;;;;;5272001;28;20066;-30
2021/12/25 02:53:51;;;;;;;24.83;15.73;;;12.60;56.00;;;;;;5271867;28;20052;-31
2021/12/25 02:56:22;;;;;;;12.30;8.50;;;12.60;55.90;;;;;;5253926;28;20054;-29
2021/12/25 02:58:53;;;;;;;17.30;11.50;;;12.60;55.90;;;;;;5271905;28;20044;-30
2021/12/25 03:01:24;;;;;;;18.23;11.03;;;12.60;55.90;;;;;;5270532;28;20101;-31
2021/12/25 03:03:55;;;;;;;17.10;10.00;;;12.60;55.70;;;;;;5271634;28;20067;-31
2021/12/25 03:06:26;;;;;;;14.43;9.63;;;12.60;55.70;;;;;;5271224;28;20075;-28
2021/12/25 03:08:57;;;;;;;16.90;10.87;;;12.60;55.80;;;;;;5271424;28;20437;-28
2021/12/25 03:11:28;;;;;;;16.50;11.43;;;12.60;55.60;;;;;;5252967;28;20064;-31
2021/12/25 03:14:12;;;;;;;15.30;10.10;;;12.60;55.60;;;;;;5271902;28;20040;-29
2021/12/25 03:16:43;;;;;;;20.55;12.65;;;12.60;55.50;;;;;;5271321;28;20047;-29
2021/12/25 03:19:21;;;;;;;41.50;31.40;;;12.60;55.60;;;;;;5271494;28;20047;-29
2021/12/25 03:21:52;;;;;;;105.90;87.73;;;12.50;56.30;;;;;;5236717;28;20048;-30
2021/12/25 03:24:24;;;;;;;62.93;43.83;;;12.50;57.00;;;;;;5270294;28;20439;-29
2021/12/25 03:26:57;;;;;;;36.60;19.97;;;12.50;57.00;;;;;;5253120;28;20044;-31
2021/12/25 03:29:28;;;;;;;14.50;8.53;;;12.60;56.80;;;;;;5253294;28;20401;-31
2021/12/25 03:31:59;;;;;;;15.17;9.93;;;12.60;56.40;;;;;;5271018;28;20036;-30
2021/12/25 03:34:30;;;;;;;12.00;8.10;;;12.60;56.50;;;;;;5236457;28;20040;-31
2021/12/25 03:37:01;;;;;;;11.57;7.67;;;12.60;56.10;;;;;;5271131;28;20047;-30
2021/12/25 03:39:32;;;;;;;14.17;7.97;;;12.60;56.00;;;;;;5271268;28;20119;-30
2021/12/25 03:42:03;;;;;;;14.37;8.90;;;12.60;55.80;;;;;;5252960;28;20127;-28
2021/12/25 03:44:35;;;;;;;14.03;9.20;;;12.60;55.80;;;;;;5252691;28;20044;-28
2021/12/25 03:47:24;;;;;;;21.43;11.73;;;12.60;55.70;;;;;;5269389;28;20043;-29
2021/12/25 03:53:26;;;;;;;17.23;10.93;;;12.60;55.60;;;;;;5255540;28;20047;-30
2021/12/25 03:58:46;;;;;;;15.43;10.37;;;12.60;55.30;;;;;;5255562;28;20126;-29
2021/12/25 04:06:49;;;;;;;15.57;9.67;;;12.60;55.00;;;;;;5233675;28;20044;-31
2021/12/25 04:09:26;;;;;;;20.10;11.97;;;12.50;54.70;;;;;;5249716;28;20060;-31
2021/12/25 04:12:06;;;;;;;22.40;14.23;;;12.60;54.60;;;;;;5248235;28;20063;-30
2021/12/25 04:14:37;;;;;;;23.40;16.00;;;12.60;54.60;;;;;;5264904;28;20498;-31
2021/12/25 04:17:08;;;;;;;23.60;15.17;;;12.60;54.70;;;;;;5265094;28;20040;-29
2021/12/25 04:19:39;;;;;;;20.63;12.13;;;12.50;54.60;;;;;;5248146;28;20095;-30
2021/12/25 04:22:17;;;;;;;23.43;14.13;;;12.60;54.80;;;;;;5248186;28;20076;-31
2021/12/25 04:24:49;;;;;;;26.53;20.10;;;12.60;54.90;;;;;;5264086;28;20481;-31
2021/12/25 04:27:21;;;;;;;21.33;16.95;;;12.60;54.80;;;;;;5264673;28;20513;-29
2021/12/25 04:30:06;;;;;;;13.23;9.23;;;12.50;54.70;;;;;;5247230;28;20048;-30
2021/12/25 05:05:22;;;;;;;28.50;14.07;;;12.60;55.10;;;;;;5269807;28;20089;-29
2021/12/25 05:07:53;;;;;;;29.43;16.30;;;12.60;55.00;;;;;;5269493;28;20078;-31
2021/12/25 05:10:24;;;;;;;30.03;17.07;;;12.50;55.00;;;;;;5269301;28;20048;-31
2021/12/25 05:12:55;;;;;;;20.73;12.33;;;12.60;55.10;;;;;;5268967;28;20486;-29
2021/12/25 05:15:27;;;;;;;12.23;7.93;;;12.60;55.00;;;;;;5269382;28;20042;-30
2021/12/25 05:17:57;;;;;;;11.13;7.27;;;12.60;55.00;;;;;;5233813;28;20564;-30
2021/12/25 05:20:30;;;;;;;11.47;7.67;;;12.60;54.80;;;;;;5269425;28;20048;-29
2021/12/25 05:23:01;;;;;;;11.87;8.00;;;12.50;54.90;;;;;;5269297;28;20105;-31
2021/12/25 05:25:33;;;;;;;13.27;7.50;;;12.60;54.90;;;;;;5268777;28;20117;-29
2021/12/25 05:28:04;;;;;;;12.00;8.23;;;12.50;54.70;;;;;;5233870;28;20051;-30
2021/12/25 05:30:35;;;;;;;13.57;9.03;;;12.50;54.30;;;;;;5267751;28;20131;-29
2021/12/25 05:33:06;;;;;;;13.93;8.73;;;12.50;54.60;;;;;;5246900;28;20131;-32
2021/12/25 05:35:38;;;;;;;14.73;10.57;;;9.90;56.40;;;;;;5267205;28;20052;-30
2021/12/25 05:38:13;;;;;;;15.90;10.77;;;8.10;59.60;;;;;;5250288;28;20047;-30
2021/12/25 05:40:45;;;;;;;17.77;11.00;;;7.10;60.70;;;;;;5225254;28;20584;-31
2021/12/25 05:43:17;;;;;;;15.70;10.73;;;6.50;61.70;;;;;;5269043;28;20044;-30
2021/12/25 05:45:48;;;;;;;20.20;13.63;;;6.20;62.70;;;;;;5250265;28;20401;-30
2021/12/25 05:48:20;;;;;;;20.20;12.57;;;5.90;63.00;;;;;;5269880;28;20422;-31
2021/12/25 05:50:51;;;;;;;20.93;13.47;;;5.70;63.10;;;;;;5272190;28;20039;-31
2021/12/25 05:53:22;;;;;;;25.43;16.70;;;5.60;62.90;;;;;;5254505;28;20404;-31
2021/12/25 05:55:53;;;;;;;25.67;16.23;;;5.60;63.80;;;;;;5271631;28;20142;-30
2021/12/25 05:58:24;;;;;;;23.87;14.47;;;5.50;63.50;;;;;;5272570;28;20115;-30
2021/12/25 06:00:55;;;;;;;26.50;15.70;;;5.50;63.80;;;;;;5254316;28;20055;-28
2021/12/25 06:03:26;;;;;;;28.50;15.43;;;5.60;63.50;;;;;;5273066;28;20123;-29
2021/12/25 06:06:17;;;;;;;32.37;17.93;;;5.60;64.10;;;;;;5215161;28;20096;-30
2021/12/25 06:09:08;;;;;;;30.27;16.80;;;5.70;64.00;;;;;;5187866;28;20107;-29
2021/12/25 06:11:39;;;;;;;31.37;18.47;;;5.60;64.00;;;;;;5171493;28;20054;-29
2021/12/25 06:14:30;;;;;;;32.80;16.60;;;5.60;64.20;;;;;;5188211;28;20058;-31
2021/12/25 06:17:02;;;;;;;30.30;16.60;;;5.50;64.30;;;;;;5155238;28;20050;-29
2021/12/25 06:19:33;;;;;;;29.10;16.00;;;5.40;64.50;;;;;;5171917;28;20145;-28
2021/12/25 06:22:04;;;;;;;27.03;14.50;;;5.40;64.80;;;;;;5171090;28;20384;-28
2021/12/25 06:24:35;;;;;;;24.03;14.07;;;5.30;64.80;;;;;;5188204;28;20132;-30
2021/12/25 06:27:06;;;;;;;24.70;13.33;;;5.30;64.90;;;;;;5171239;28;20097;-31
2021/12/25 06:29:47;;;;;;;21.97;12.90;;;5.30;64.90;;;;;;5181384;28;20133;-31
2021/12/25 06:32:19;;;;;;;26.17;14.70;;;5.20;64.80;;;;;;5184358;28;20046;-30
2021/12/25 06:34:51;;;;;;;29.87;16.07;;;5.20;64.70;;;;;;5167844;28;20058;-31
2021/12/25 06:37:24;;;;;;;24.53;14.63;;;5.10;65.20;;;;;;5173061;28;20307;-29
2021/12/25 06:39:55;;;;;;;28.58;16.90;;;5.10;65.10;;;;;;5195509;28;20049;-31
2021/12/25 06:42:26;;;;;;;20.57;13.67;;;5.10;65.30;;;;;;5208433;28;20157;-31
2021/12/25 06:44:57;;;;;;;23.33;14.83;;;5.00;65.50;;;;;;5230385;28;20061;-31
2021/12/25 06:47:28;;;;;;;24.10;15.53;;;5.00;65.00;;;;;;5263017;28;20104;-29
2021/12/25 06:49:59;;;;;;;25.43;17.03;;;5.80;65.80;;;;;;5263135;28;20048;-30
2021/12/25 06:52:30;;;;;;;28.30;17.80;;;6.70;64.30;;;;;;5250540;28;20075;-30
2021/12/25 06:55:01;;;;;;;17.77;11.73;;;7.60;62.60;;;;;;5263132;28;20064;-31
2021/12/25 06:57:32;;;;;;;17.87;12.23;;;8.30;61.00;;;;;;5261832;28;20548;-31
2021/12/25 07:00:03;;;;;;;18.20;13.40;;;8.90;60.10;;;;;;5255570;28;20086;-32
2021/12/25 07:02:34;;;;;;;17.23;11.70;;;9.30;59.40;;;;;;5242967;28;20045;-31
2021/12/25 07:05:05;;;;;;;16.23;11.27;;;9.60;59.00;;;;;;5255385;28;20501;-31
2021/12/25 07:07:36;;;;;;;18.27;15.40;;;9.90;58.50;;;;;;5238193;28;20071;-30
2021/12/25 07:10:08;;;;;;;22.93;16.83;;;10.20;58.10;;;;;;5242973;28;20091;-31
2021/12/25 07:12:43;;;;;;;20.70;16.70;;;10.40;58.00;;;;;;5256406;28;20048;-32
2021/12/25 07:15:14;;;;;;;16.83;12.13;;;10.60;57.60;;;;;;5254357;28;20040;-32
2021/12/25 07:17:45;;;;;;;21.40;15.13;;;10.80;57.40;;;;;;5259381;28;20452;-32
2021/12/25 07:20:16;;;;;;;20.10;14.67;;;10.80;56.30;;;;;;5258932;28;20043;-29
2021/12/25 07:22:47;;;;;;;24.97;17.60;;;8.60;58.20;;;;;;5253694;28;20048;-30
2021/12/25 07:25:18;;;;;;;26.77;18.80;;;7.20;60.60;;;;;;5257511;28;20489;-29
2021/12/25 07:27:49;;;;;;;32.67;24.90;;;6.50;61.90;;;;;;5249978;28;20093;-31
2021/12/25 07:30:20;;;;;;;35.23;23.07;;;6.10;63.10;;;;;;5259468;28;20362;-29
2021/12/25 07:32:51;;;;;;;36.90;25.93;;;5.90;63.80;;;;;;5244530;28;20107;-31
2021/12/25 07:35:22;;;;;;;31.50;21.67;;;5.70;63.30;;;;;;5256889;28;20050;-29
2021/12/25 07:37:53;;;;;;;36.07;23.10;;;5.60;64.20;;;;;;5241332;28;20068;-30
2021/12/25 07:40:24;;;;;;;44.90;26.27;;;5.40;63.90;;;;;;5259966;28;20118;-29
2021/12/25 07:42:55;;;;;;;47.83;29.20;;;5.30;64.10;;;;;;5254563;28;20490;-31
2021/12/25 07:45:26;;;;;;;54.10;39.23;;;5.30;64.50;;;;;;5260841;28;20044;-30
2021/12/25 07:48:19;;;;;;;54.83;39.53;;;5.20;64.80;;;;;;5256375;28;20085;-31
2021/12/25 07:50:50;;;;;;;47.17;31.23;;;5.10;65.20;;;;;;5260990;28;20442;-30
2021/12/25 07:53:21;;;;;;;46.47;31.10;;;5.10;65.10;;;;;;5259116;28;20123;-29
2021/12/25 07:55:52;;;;;;;56.10;39.97;;;5.00;65.50;;;;;;5244131;28;20066;-31
2021/12/25 07:58:23;;;;;;;55.77;37.00;;;5.00;65.70;;;;;;5258396;28;20048;-31
2021/12/25 08:00:54;;;;;;;57.13;35.63;;;4.90;66.30;;;;;;5252612;28;20052;-32
2021/12/25 08:03:25;;;;;;;53.77;35.90;;;5.30;66.60;;;;;;5225216;28;20055;-31
2021/12/25 08:05:56;;;;;;;43.53;27.30;;;6.20;65.40;;;;;;5217088;28;20064;-32
2021/12/25 08:08:27;;;;;;;38.57;24.37;;;7.10;63.80;;;;;;5213616;28;20049;-32
2021/12/25 08:10:58;;;;;;;42.50;26.57;;;7.90;62.50;;;;;;5189991;28;20049;-32
2021/12/25 08:13:29;;;;;;;44.77;29.00;;;8.50;61.20;;;;;;5207498;28;20061;-30
2021/12/25 08:16:00;;;;;;;43.20;29.13;;;9.10;60.70;;;;;;5191215;28;20131;-32
2021/12/25 08:18:31;;;;;;;51.63;35.97;;;9.50;60.00;;;;;;5203118;28;20054;-30
2021/12/25 08:21:04;;;;;;;42.80;29.67;;;9.90;59.30;;;;;;5187637;28;20499;-32
2021/12/25 08:23:35;;;;;;;32.28;21.92;;;10.20;59.00;;;;;;5202794;28;20079;-32
2021/12/25 08:26:07;;;;;;;39.17;27.10;;;10.50;58.40;;;;;;5202737;28;20060;-31
2021/12/25 08:28:38;;;;;;;31.13;20.70;;;10.70;58.30;;;;;;5202829;28;20057;-30
2021/12/25 08:31:09;;;;;;;38.23;26.27;;;10.80;57.90;;;;;;5202968;28;20134;-32
2021/12/25 08:33:40;;;;;;;32.97;22.97;;;10.90;57.50;;;;;;5212691;28;20060;-30
2021/12/25 08:36:15;;;;;;;37.43;25.67;;;11.00;57.80;;;;;;5240073;28;20050;-32
2021/12/25 08:38:46;;;;;;;37.10;25.77;;;11.10;57.60;;;;;;5246483;28;20474;-31
2021/12/25 08:41:18;;;;;;;40.53;32.40;;;11.20;57.30;;;;;;5245917;28;20044;-32
2021/12/25 08:43:56;;;;;;;66.63;44.00;;;11.20;57.20;;;;;;5247481;28;20049;-30
2021/12/25 08:46:55;;;;;;;103.37;60.77;;;11.30;57.10;;;;;;5266686;28;20063;-32
2021/12/25 08:49:30;;;;;;;79.90;45.67;;;11.40;57.00;;;;;;5233869;28;20098;-30
2021/12/25 08:52:07;;;;;;;133.93;78.50;;;11.60;57.10;;;;;;5246551;28;20060;-31
2021/12/25 08:54:39;;;;;;;77.80;46.80;;;11.60;56.90;;;;;;5247207;28;20040;-31
2021/12/25 09:00:57;;;;;;;59.83;37.43;;;11.70;57.10;;;;;;5247820;28;20051;-32
2021/12/25 09:03:29;;;;;;;83.43;48.83;;;11.80;57.00;;;;;;5257580;28;20048;-32
2021/12/25 09:06:01;;;;;;;93.80;58.83;;;11.80;57.00;;;;;;5268645;28;20397;-31
2021/12/25 09:08:32;;;;;;;56.93;36.80;;;11.80;57.30;;;;;;5269152;28;20118;-32
2021/12/25 09:11:02;;;;;;;46.60;30.53;;;11.90;57.00;;;;;;5251467;28;20569;-31
2021/12/25 09:13:34;;;;;;;55.07;35.00;;;11.90;57.20;;;;;;5268953;28;20036;-31
2021/12/25 09:16:04;;;;;;;49.50;33.37;;;11.90;57.20;;;;;;5251107;28;20485;-30
2021/12/25 09:18:36;;;;;;;49.60;32.43;;;11.90;57.00;;;;;;5269026;28;20048;-32
2021/12/25 09:21:07;;;;;;;41.17;26.50;;;12.00;57.10;;;;;;5269371;28;20066;-32
2021/12/25 09:23:38;;;;;;;46.33;29.27;;;12.00;56.80;;;;;;5272146;28;20072;-32
2021/12/25 09:26:09;;;;;;;40.30;26.37;;;12.10;56.80;;;;;;5255710;28;20481;-32
2021/12/25 09:28:40;;;;;;;37.83;24.43;;;12.10;56.60;;;;;;5255365;28;20044;-32
2021/12/25 09:31:11;;;;;;;48.47;30.00;;;12.20;56.60;;;;;;5255498;28;20051;-32
2021/12/25 09:33:42;;;;;;;45.93;25.30;;;12.20;56.70;;;;;;5255573;28;20040;-31
2021/12/25 09:36:13;;;;;;;33.47;22.07;;;12.20;56.70;;;;;;5273723;28;20400;-32
2021/12/25 09:38:44;;;;;;;53.97;33.63;;;12.20;56.70;;;;;;5273556;28;20129;-32
2021/12/25 09:41:16;;;;;;;56.43;29.30;;;12.30;56.80;;;;;;5255231;28;20566;-32
2021/12/25 09:43:48;;;;;;;74.17;36.83;;;12.30;57.40;;;;;;5273627;28;20505;-31
2021/12/25 09:46:20;;;;;;;83.63;39.50;;;12.30;57.00;;;;;;5273146;28;20052;-32
2021/12/25 09:48:51;;;;;;;79.17;39.57;;;12.40;57.00;;;;;;5273101;28;20039;-31
2021/12/25 09:51:23;;;;;;;64.43;31.83;;;12.40;57.00;;;;;;5273298;28;20048;-31
2021/12/25 09:54:06;;;;;;;61.77;31.70;;;12.50;57.00;;;;;;5255189;28;20051;-31
2021/12/25 09:56:38;;;;;;;78.75;37.83;;;12.50;57.00;;;;;;5273287;28;20068;-32
2021/12/25 09:59:13;;;;;;;126.47;68.40;;;12.50;57.00;;;;;;5273273;28;20060;-32
2021/12/25 10:01:45;;;;;;;93.23;52.63;;;12.50;57.00;;;;;;5255462;28;20135;-32
2021/12/25 10:04:40;;;;;;;56.72;32.67;;;12.60;57.10;;;;;;5272863;28;20551;-31
2021/12/25 10:07:20;;;;;;;66.57;36.13;;;12.60;57.40;;;;;;5256703;28;20052;-32
2021/12/25 10:09:58;;;;;;;62.97;35.83;;;12.60;57.70;;;;;;5272933;28;20119;-32
2021/12/25 10:12:48;;;;;;;47.93;28.27;;;12.60;57.70;;;;;;5272806;28;20039;-32
2021/12/25 10:15:23;;;;;;;39.30;24.47;;;12.60;57.70;;;;;;5273001;28;20044;-32
2021/12/25 10:17:58;;;;;;;41.83;25.47;;;12.60;58.10;;;;;;5272309;28;20051;-32
2021/12/25 10:20:31;;;;;;;41.50;25.50;;;12.50;57.70;;;;;;5271684;28;20374;-32
2021/12/25 10:23:08;;;;;;;41.92;26.15;;;12.40;57.50;;;;;;5253689;28;20072;-32
2021/12/25 10:25:47;;;;;;;53.93;31.27;;;12.40;57.60;;;;;;5270018;28;20170;-32
2021/12/25 10:28:20;;;;;;;60.67;33.23;;;12.40;57.80;;;;;;5272059;28;20089;-31
2021/12/25 10:31:02;;;;;;;58.50;29.97;;;12.30;57.80;;;;;;5272190;28;20040;-31
2021/12/25 10:33:50;;;;;;;37.93;23.13;;;12.40;57.70;;;;;;5271620;28;20461;-31
2021/12/25 10:36:26;;;;;;;51.37;27.60;;;12.50;57.10;;;;;;5271598;28;20090;-30
2021/12/25 10:39:11;;;;;;;36.87;23.60;;;12.60;56.70;;;;;;5272242;28;20044;-30
2021/12/25 10:57:40;;;;;;;40.03;24.87;;;12.70;57.50;;;;;;5289959;28;20063;-31
2021/12/25 11:00:33;;;;;;;50.60;29.00;;;12.70;57.50;;;;;;5284740;28;20036;-29
2021/12/25 11:03:05;;;;;;;48.43;27.93;;;12.60;57.40;;;;;;5276911;28;20493;-30
2021/12/25 11:05:44;;;;;;;42.87;24.87;;;12.70;57.80;;;;;;5272566;28;20122;-30
2021/12/25 11:08:19;;;;;;;47.97;26.33;;;12.60;57.50;;;;;;5265975;28;20192;-30
2021/12/25 11:10:53;;;;;;;49.27;26.70;;;12.70;58.10;;;;;;5280701;28;20541;-31
2021/12/25 11:14:20;;;;;;;39.03;22.63;;;12.70;58.50;;;;;;5266502;28;20054;-31
2021/12/25 11:16:53;;;;;;;59.53;36.53;;;12.70;57.90;;;;;;5274692;28;20044;-31
2021/12/25 11:23:01;;;;;;;54.30;27.00;;;12.70;58.30;;;;;;5275294;28;20123;-31
2021/12/25 11:26:23;;;;;;;47.93;26.03;;;12.60;58.50;;;;;;5265092;28;20077;-30
2021/12/25 13:02:04;;;;;;;66.87;31.17;;;12.70;58.40;;;;;;5288572;23;19922;-30
2021/12/25 13:04:42;;;;;;;45.80;25.07;;;12.70;58.60;;;;;;5120792;28;20059;-30
2021/12/25 13:07:14;;;;;;;49.93;27.33;;;12.70;58.60;;;;;;5123314;28;20050;-32
2021/12/25 13:09:52;;;;;;;71.17;30.77;;;12.70;58.80;;;;;;5123966;28;20047;-31
2021/12/25 13:12:44;;;;;;;59.97;30.10;;;12.70;58.90;;;;;;5123779;28;20047;-30
2021/12/25 13:15:26;;;;;;;36.97;23.05;;;12.70;59.00;;;;;;5123625;28;20047;-32
2021/12/25 13:18:03;;;;;;;36.83;22.60;;;12.60;58.80;;;;;;5106561;29;20106;-30
2021/12/25 13:20:49;;;;;;;48.17;26.27;;;12.60;59.00;;;;;;5122554;28;20466;-31
2021/12/25 13:23:22;;;;;;;47.90;25.63;;;12.60;58.90;;;;;;5123606;28;20075;-30
2021/12/25 13:25:53;;;;;;;;;;;12.60;59.00;;;;;;5124135;28;20050;-32
2021/12/25 13:28:26;;;;;;;61.07;30.70;;;12.60;59.00;;;;;;5124371;28;20009;-32
2021/12/25 13:30:59;;;;;;;;;;;12.60;58.90;;;;;;5126755;28;20050;-33
2021/12/25 13:33:31;;;;;;;119.77;70.20;;;12.50;59.10;;;;;;5123698;29;19922;-30
2021/12/25 13:36:06;;;;;;;78.37;45.63;;;12.50;58.70;;;;;;5124966;29;20105;-33
2021/12/25 13:38:53;;;;;;;234.23;155.43;;;12.50;58.80;;;;;;5125723;29;20039;-31
2021/12/25 13:41:33;;;;;;;175.20;103.37;;;12.50;58.80;;;;;;5125275;28;20063;-30
2021/12/25 13:44:08;;;;;;;122.67;68.53;;;12.50;58.80;;;;;;5125110;29;20047;-30
2021/12/25 13:46:46;;;;;;;271.77;170.93;;;12.50;58.90;;;;;;5125390;28;20412;-30
2021/12/25 13:49:29;;;;;;;190.27;117.40;;;12.50;58.80;;;;;;5126088;29;20047;-29
2021/12/25 13:52:13;;;;;;;109.22;51.70;;;12.50;58.80;;;;;;5125751;29;20047;-29
2021/12/25 13:54:44;;;;;;;417.60;188.15;;;12.60;58.70;;;;;;5125382;28;20458;-30
2021/12/25 13:57:17;;;;;;;129.47;63.97;;;12.60;58.80;;;;;;5140398;28;20404;-30
2021/12/25 13:59:52;;;;;;;120.60;47.63;;;12.50;58.80;;;;;;5077445;29;20051;-29
2021/12/25 14:02:24;;;;;;;53.00;26.87;;;12.50;58.80;;;;;;5089926;29;20386;-29
2021/12/25 14:04:56;;;;;;;60.10;32.83;;;12.50;58.60;;;;;;5106114;29;20390;-30
2021/12/25 14:07:27;;;;;;;161.43;93.77;;;12.50;58.50;;;;;;5106033;29;20056;-29
2021/12/25 14:10:18;;;;;;;279.93;158.70;;;12.50;58.60;;;;;;5091738;29;20489;-29
2021/12/25 14:12:51;;;;;;;283.93;152.80;;;12.40;58.60;;;;;;5108818;29;20044;-31
2021/12/25 14:15:25;;;;;;;135.57;71.68;;;12.50;58.70;;;;;;5109590;29;20040;-29
2021/12/25 14:17:57;;;;;;;126.23;75.93;;;12.50;58.60;;;;;;5092076;29;20109;-30
2021/12/25 14:20:29;;;;;;;64.03;38.10;;;12.50;58.40;;;;;;5109491;29;20055;-29
2021/12/25 14:23:05;;;;;;;57.75;30.25;;;12.50;58.40;;;;;;5108218;29;20052;-29
2021/12/25 14:25:38;;;;;;;81.47;41.63;;;12.50;58.30;;;;;;5087763;29;20134;-29
2021/12/25 14:28:21;;;;;;;52.47;26.23;;;12.50;58.40;;;;;;5071809;29;20172;-31
2021/12/25 14:31:02;;;;;;;50.00;27.80;;;12.60;58.20;;;;;;5084319;29;20083;-31
2021/12/25 14:33:35;;;;;;;55.53;29.80;;;12.60;58.10;;;;;;5079569;29;20100;-30
2021/12/25 14:36:10;;;;;;;82.35;42.17;;;12.50;58.20;;;;;;5085149;29;20064;-30
2021/12/25 14:38:43;;;;;;;62.27;35.33;;;12.50;58.40;;;;;;5086169;29;20528;-29
2021/12/25 14:41:15;;;;;;;54.63;30.95;;;12.50;58.60;;;;;;5067431;29;20343;-31
2021/12/25 14:43:46;;;;;;;66.27;40.43;;;12.50;58.50;;;;;;5067526;29;20060;-31
2021/12/25 14:46:19;;;;;;;68.67;39.57;;;12.50;58.60;;;;;;5067705;29;20148;-30
2021/12/25 14:48:50;;;;;;;53.30;32.65;;;12.50;58.30;;;;;;5067722;29;20090;-30
2021/12/25 14:51:22;;;;;;;63.03;38.07;;;12.50;59.00;;;;;;5052233;29;20117;-29
2021/12/25 14:53:56;;;;;;;49.08;32.35;;;12.50;58.60;;;;;;5067712;29;20060;-31
2021/12/25 14:56:38;;;;;;;57.05;33.05;;;12.50;58.70;;;;;;5061459;29;20056;-30
2021/12/25 14:59:21;;;;;;;50.90;29.17;;;12.40;58.40;;;;;;5087463;29;20529;-30
2021/12/25 15:01:55;;;;;;;49.92;30.17;;;12.40;58.80;;;;;;5070898;29;20048;-30
2021/12/25 15:04:32;;;;;;;;;;;12.40;58.80;;;;;;5087406;29;20048;-29
2021/12/25 15:07:08;;;;;;;36.37;23.27;;;12.40;58.80;;;;;;5086997;29;19930;-30
2021/12/25 15:09:47;;;;;;;55.00;35.23;;;12.50;58.90;;;;;;5087132;29;20099;-28
2021/12/25 15:12:23;;;;;;;40.50;24.80;;;12.50;58.90;;;;;;5078706;29;20076;-29
2021/12/25 15:15:14;;;;;;;45.93;28.40;;;12.60;58.80;;;;;;5089367;29;20067;-29
2021/12/25 15:17:46;;;;;;;33.20;20.67;;;12.60;58.90;;;;;;5089394;29;20087;-29
2021/12/25 15:20:24;;;;;;;38.78;23.77;;;12.60;58.70;;;;;;5087398;29;20092;-32
2021/12/25 15:22:56;;;;;;;67.53;40.30;;;12.60;58.60;;;;;;5089068;29;20059;-31
2021/12/25 15:25:27;;;;;;;72.13;45.70;;;12.60;58.90;;;;;;5088993;29;20135;-31
2021/12/25 15:27:58;;;;;;;123.93;65.17;;;12.60;58.60;;;;;;5088989;29;20051;-31
2021/12/25 15:30:30;;;;;;;199.60;106.37;;;12.60;58.50;;;;;;5103050;29;20135;-29
2021/12/25 15:33:07;;;;;;;115.20;62.93;;;12.60;58.60;;;;;;5086670;29;20048;-30
2021/12/25 15:35:40;;;;;;;87.33;43.23;;;12.60;58.60;;;;;;5087987;29;20116;-29
2021/12/25 15:38:12;;;;;;;83.60;44.70;;;12.60;58.40;;;;;;5088788;29;20052;-31
2021/12/25 15:40:46;;;;;;;69.95;38.65;;;12.60;58.30;;;;;;5087806;29;20119;-31
2021/12/25 15:43:17;;;;;;;60.38;32.80;;;12.60;59.00;;;;;;5103811;29;20052;-30
2021/12/25 15:45:48;;;;;;;55.97;31.53;;;12.60;58.50;;;;;;5087908;29;20069;-32
2021/12/25 15:48:19;;;;;;;48.87;28.03;;;12.50;58.30;;;;;;5089078;29;20071;-30
2021/12/25 15:50:50;;;;;;;48.73;27.07;;;12.60;58.00;;;;;;5088840;29;20490;-29
2021/12/25 15:53:21;;;;;;;35.27;21.20;;;12.70;58.90;;;;;;5087842;29;20056;-32
2021/12/25 15:55:52;;;;;;;36.47;23.80;;;12.70;58.70;;;;;;5102881;29;20479;-32
2021/12/25 15:58:23;;;;;;;33.67;21.57;;;12.60;58.50;;;;;;5088550;29;20087;-29
2021/12/25 16:00:55;;;;;;;37.13;24.67;;;12.60;58.70;;;;;;5106705;29;20056;-31
2021/12/25 16:03:26;;;;;;;48.00;28.13;;;12.60;58.80;;;;;;5091121;29;20417;-31
2021/12/25 16:05:58;;;;;;;42.47;27.90;;;12.50;59.10;;;;;;5107889;29;20067;-29
2021/12/25 16:08:29;;;;;;;49.20;30.70;;;12.60;58.80;;;;;;5106292;29;20051;-29
2021/12/25 16:11:00;;;;;;;69.90;41.70;;;12.60;58.80;;;;;;5107760;29;20124;-31
2021/12/25 16:13:31;;;;;;;68.10;40.57;;;12.70;58.80;;;;;;5107124;29;20043;-29
2021/12/25 16:16:02;;;;;;;62.73;36.90;;;12.70;58.60;;;;;;5107362;29;20044;-29
2021/12/25 16:18:33;;;;;;;59.07;33.50;;;12.70;58.60;;;;;;5107474;29;20099;-31